KPAE

Snohomish County (Paine Field) Airport

Everett, Washington, USA
KPAE 210523Z 2106/2206 VRB02KT 3SM FU VV050 FM211500 VRB02KT 4SM FU VV050 FM211800 34005KT 5SM FU VV050 FM220200 VRB02KT 4SM FU VV040
Issued Valid From Valid To
Aug-21 @ 05:23 UTC
(12 hours ago)
Aug-21 @ 06:00 UTC
(12 hours ago)
Aug-22 @ 06:00 UTC
(in 12 hours)
Expired Click to View Aug-21 @ 06:00 to Aug-21 @ 15:00
KPAE 210523Z 2106/2206 VRB02KT 3SM FU VV050
Wind Visibility Clouds Conditions
Variable at 2 knots 3 miles
  • Vertical visibility at 5,000' AGL
  • Smoke
From Aug-21 @ 15:00 to Aug-21 @ 18:00
FM211500 VRB02KT 4SM FU VV050
Wind Visibility Clouds Conditions
Variable at 2 knots 4 miles
  • Vertical visibility at 5,000' AGL
  • Smoke
From Aug-21 @ 18:00 to Aug-22 @ 02:00
FM211800 34005KT 5SM FU VV050
Wind Visibility Clouds Conditions
340° at 5 knots 5 miles
  • Vertical visibility at 5,000' AGL
  • Smoke
From Aug-22 @ 02:00 to Aug-22 @ 06:00
FM220200 VRB02KT 4SM FU VV040
Wind Visibility Clouds Conditions
Variable at 2 knots 4 miles
  • Vertical visibility at 4,000' AGL
  • Smoke
KPAE 210523Z 2106/2206 VRB02KT 3SM FU VV050 FM211500 VRB02KT 4SM FU VV050 FM211800 34005KT 5SM FU VV050 FM220200 VRB02KT 4SM FU VV040
Issued Aug-21 @ 05:23 UTC
(12 hours ago)
Valid From Aug-21 @ 06:00 UTC
(12 hours ago)
Valid To Aug-22 @ 06:00 UTC
(in 12 hours)
Aug-21 @ 06:00 - Aug-21 @ 15:00
Wind Visibility
Variable at 2 knots 3 miles
Clouds
  • Vertical visibility at 5,000' AGL
Conditions
  • Smoke
From Aug-21 @ 15:00 - Aug-21 @ 18:00
Wind Visibility
Variable at 2 knots 4 miles
Clouds
  • Vertical visibility at 5,000' AGL
Conditions
  • Smoke
From Aug-21 @ 18:00 - Aug-22 @ 02:00
Wind Visibility
340° at 5 knots 5 miles
Clouds
  • Vertical visibility at 5,000' AGL
Conditions
  • Smoke
From Aug-22 @ 02:00 - Aug-22 @ 06:00
Wind Visibility
Variable at 2 knots 4 miles
Clouds
  • Vertical visibility at 4,000' AGL
Conditions
  • Smoke